sensor_id;sensor_type;location;lat;lon;timestamp;P1;durP1;ratioP1;P2;durP2;ratioP2
2396;SDS011;1209;48.410;9.054;2023-05-21T00:00:04;8.37;;;6.60;;
2396;SDS011;1209;48.410;9.054;2023-05-21T00:02:34;9.97;;;6.87;;
2396;SDS011;1209;48.410;9.054;2023-05-21T00:05:00;8.17;;;6.20;;
2396;SDS011;1209;48.410;9.054;2023-05-21T00:07:25;7.83;;;6.33;;
2396;SDS011;1209;48.410;9.054;2023-05-21T00:09:51;14.70;;;8.33;;
2396;SDS011;1209;48.410;9.054;2023-05-21T00:12:16;8.60;;;6.63;;
2396;SDS011;1209;48.410;9.054;2023-05-21T00:14:42;8.90;;;7.00;;
2396;SDS011;1209;48.410;9.054;2023-05-21T00:17:07;8.23;;;6.07;;
2396;SDS011;1209;48.410;9.054;2023-05-21T00:19:32;8.90;;;6.63;;
2396;SDS011;1209;48.410;9.054;2023-05-21T00:21:58;8.37;;;6.60;;
2396;SDS011;1209;48.410;9.054;2023-05-21T00:24:26;9.03;;;6.67;;
2396;SDS011;1209;48.410;9.054;2023-05-21T00:26:52;9.73;;;6.50;;
2396;SDS011;1209;48.410;9.054;2023-05-21T00:29:17;7.57;;;6.23;;
2396;SDS011;1209;48.410;9.054;2023-05-21T00:31:43;9.40;;;7.10;;
2396;SDS011;1209;48.410;9.054;2023-05-21T00:34:08;9.47;;;6.83;;
2396;SDS011;1209;48.410;9.054;2023-05-21T00:36:33;12.50;;;7.40;;
2396;SDS011;1209;48.410;9.054;2023-05-21T00:38:59;7.33;;;6.43;;
2396;SDS011;1209;48.410;9.054;2023-05-21T00:41:26;8.60;;;6.90;;
2396;SDS011;1209;48.410;9.054;2023-05-21T00:43:54;7.33;;;6.50;;
2396;SDS011;1209;48.410;9.054;2023-05-21T00:46:20;8.90;;;7.10;;
2396;SDS011;1209;48.410;9.054;2023-05-21T00:48:45;8.50;;;5.97;;
2396;SDS011;1209;48.410;9.054;2023-05-21T00:51:12;7.13;;;6.40;;
2396;SDS011;1209;48.410;9.054;2023-05-21T00:53:39;8.30;;;6.13;;
2396;SDS011;1209;48.410;9.054;2023-05-21T00:56:05;10.50;;;7.47;;
2396;SDS011;1209;48.410;9.054;2023-05-21T00:58:30;8.20;;;6.67;;
2396;SDS011;1209;48.410;9.054;2023-05-21T01:00:57;10.03;;;6.33;;
2396;SDS011;1209;48.410;9.054;2023-05-21T01:03:27;8.73;;;6.70;;
2396;SDS011;1209;48.410;9.054;2023-05-21T01:05:53;8.50;;;6.50;;
2396;SDS011;1209;48.410;9.054;2023-05-21T01:08:23;10.63;;;6.90;;
2396;SDS011;1209;48.410;9.054;2023-05-21T01:10:51;9.57;;;6.77;;
2396;SDS011;1209;48.410;9.054;2023-05-21T01:13:17;9.53;;;6.60;;
2396;SDS011;1209;48.410;9.054;2023-05-21T01:15:46;9.47;;;7.47;;
2396;SDS011;1209;48.410;9.054;2023-05-21T01:18:13;12.83;;;8.03;;
2396;SDS011;1209;48.410;9.054;2023-05-21T01:20:39;11.83;;;6.90;;
2396;SDS011;1209;48.410;9.054;2023-05-21T01:23:06;8.10;;;7.17;;
2396;SDS011;1209;48.410;9.054;2023-05-21T01:25:32;10.93;;;7.43;;
2396;SDS011;1209;48.410;9.054;2023-05-21T01:27:57;9.53;;;7.77;;
2396;SDS011;1209;48.410;9.054;2023-05-21T01:30:22;9.70;;;6.10;;
2396;SDS011;1209;48.410;9.054;2023-05-21T01:35:27;9.80;;;7.67;;
2396;SDS011;1209;48.410;9.054;2023-05-21T01:37:58;8.67;;;6.70;;
2396;SDS011;1209;48.410;9.054;2023-05-21T01:40:40;10.23;;;7.63;;
2396;SDS011;1209;48.410;9.054;2023-05-21T01:43:11;8.13;;;6.57;;
2396;SDS011;1209;48.410;9.054;2023-05-21T01:45:38;10.20;;;7.77;;
2396;SDS011;1209;48.410;9.054;2023-05-21T01:48:06;8.80;;;6.90;;
2396;SDS011;1209;48.410;9.054;2023-05-21T01:50:33;9.50;;;7.20;;
2396;SDS011;1209;48.410;9.054;2023-05-21T01:52:59;14.77;;;7.60;;
2396;SDS011;1209;48.410;9.054;2023-05-21T01:55:25;7.77;;;6.73;;
2396;SDS011;1209;48.410;9.054;2023-05-21T01:57:52;10.87;;;8.00;;
2396;SDS011;1209;48.410;9.054;2023-05-21T02:00:19;7.90;;;5.40;;
2396;SDS011;1209;48.410;9.054;2023-05-21T02:02:45;8.83;;;6.73;;
2396;SDS011;1209;48.410;9.054;2023-05-21T02:05:11;9.23;;;7.17;;
2396;SDS011;1209;48.410;9.054;2023-05-21T02:07:36;8.87;;;7.17;;
2396;SDS011;1209;48.410;9.054;2023-05-21T02:10:02;9.53;;;6.20;;
2396;SDS011;1209;48.410;9.054;2023-05-21T02:12:27;10.00;;;6.43;;
2396;SDS011;1209;48.410;9.054;2023-05-21T02:14:53;11.70;;;7.27;;
2396;SDS011;1209;48.410;9.054;2023-05-21T02:17:20;8.73;;;6.57;;
2396;SDS011;1209;48.410;9.054;2023-05-21T02:19:46;12.83;;;6.50;;
2396;SDS011;1209;48.410;9.054;2023-05-21T02:22:12;9.90;;;6.77;;
2396;SDS011;1209;48.410;9.054;2023-05-21T02:24:37;7.87;;;6.07;;
2396;SDS011;1209;48.410;9.054;2023-05-21T02:27:02;6.87;;;6.17;;
2396;SDS011;1209;48.410;9.054;2023-05-21T02:29:30;8.87;;;7.50;;
2396;SDS011;1209;48.410;9.054;2023-05-21T02:31:56;9.80;;;6.70;;
2396;SDS011;1209;48.410;9.054;2023-05-21T02:34:21;9.00;;;7.23;;
2396;SDS011;1209;48.410;9.054;2023-05-21T02:36:46;9.73;;;7.13;;
2396;SDS011;1209;48.410;9.054;2023-05-21T02:39:12;9.63;;;6.40;;
2396;SDS011;1209;48.410;9.054;2023-05-21T02:41:39;12.60;;;7.20;;
2396;SDS011;1209;48.410;9.054;2023-05-21T02:44:04;11.40;;;7.37;;
2396;SDS011;1209;48.410;9.054;2023-05-21T02:46:30;10.50;;;7.50;;
2396;SDS011;1209;48.410;9.054;2023-05-21T02:48:55;8.73;;;6.70;;
2396;SDS011;1209;48.410;9.054;2023-05-21T02:51:20;12.93;;;7.83;;
2396;SDS011;1209;48.410;9.054;2023-05-21T02:53:46;10.80;;;7.87;;
2396;SDS011;1209;48.410;9.054;2023-05-21T02:56:12;8.83;;;7.20;;
2396;SDS011;1209;48.410;9.054;2023-05-21T02:58:37;10.33;;;7.27;;
2396;SDS011;1209;48.410;9.054;2023-05-21T03:01:02;7.97;;;6.33;;
2396;SDS011;1209;48.410;9.054;2023-05-21T03:03:27;11.40;;;8.20;;
2396;SDS011;1209;48.410;9.054;2023-05-21T03:05:53;9.80;;;6.90;;
2396;SDS011;1209;48.410;9.054;2023-05-21T03:08:18;9.20;;;8.10;;
2396;SDS011;1209;48.410;9.054;2023-05-21T03:10:43;10.10;;;6.90;;
2396;SDS011;1209;48.410;9.054;2023-05-21T03:13:08;11.47;;;7.30;;
2396;SDS011;1209;48.410;9.054;2023-05-21T03:15:34;10.00;;;6.60;;
2396;SDS011;1209;48.410;9.054;2023-05-21T03:17:59;10.93;;;7.57;;
2396;SDS011;1209;48.410;9.054;2023-05-21T03:20:24;10.17;;;8.00;;
2396;SDS011;1209;48.410;9.054;2023-05-21T03:22:50;9.87;;;7.37;;
2396;SDS011;1209;48.410;9.054;2023-05-21T03:25:16;9.60;;;6.43;;
2396;SDS011;1209;48.410;9.054;2023-05-21T03:27:42;9.13;;;7.40;;
2396;SDS011;1209;48.410;9.054;2023-05-21T03:30:07;9.90;;;7.40;;
2396;SDS011;1209;48.410;9.054;2023-05-21T03:32:33;11.27;;;7.80;;
2396;SDS011;1209;48.410;9.054;2023-05-21T03:35:01;11.43;;;7.60;;
2396;SDS011;1209;48.410;9.054;2023-05-21T03:37:27;11.23;;;7.30;;
2396;SDS011;1209;48.410;9.054;2023-05-21T03:39:52;14.90;;;7.60;;
2396;SDS011;1209;48.410;9.054;2023-05-21T03:42:17;10.43;;;7.90;;
2396;SDS011;1209;48.410;9.054;2023-05-21T03:44:42;9.00;;;6.73;;
2396;SDS011;1209;48.410;9.054;2023-05-21T03:47:08;9.97;;;7.20;;
2396;SDS011;1209;48.410;9.054;2023-05-21T03:49:33;10.67;;;6.90;;
2396;SDS011;1209;48.410;9.054;2023-05-21T03:51:58;9.50;;;7.07;;
2396;SDS011;1209;48.410;9.054;2023-05-21T03:54:24;11.00;;;8.03;;
2396;SDS011;1209;48.410;9.054;2023-05-21T03:56:49;12.30;;;8.37;;
2396;SDS011;1209;48.410;9.054;2023-05-21T03:59:14;8.60;;;6.97;;
2396;SDS011;1209;48.410;9.054;2023-05-21T04:01:40;10.47;;;7.70;;
2396;SDS011;1209;48.410;9.054;2023-05-21T04:04:06;8.70;;;6.53;;
2396;SDS011;1209;48.410;9.054;2023-05-21T04:06:31;10.83;;;7.67;;
2396;SDS011;1209;48.410;9.054;2023-05-21T04:08:57;14.13;;;7.80;;
2396;SDS011;1209;48.410;9.054;2023-05-21T04:11:22;9.27;;;6.93;;
2396;SDS011;1209;48.410;9.054;2023-05-21T04:13:47;10.53;;;8.03;;
2396;SDS011;1209;48.410;9.054;2023-05-21T04:16:13;8.63;;;7.67;;
2396;SDS011;1209;48.410;9.054;2023-05-21T04:18:39;12.20;;;8.83;;
2396;SDS011;1209;48.410;9.054;2023-05-21T04:21:05;8.63;;;7.13;;
2396;SDS011;1209;48.410;9.054;2023-05-21T04:23:31;10.20;;;8.07;;
2396;SDS011;1209;48.410;9.054;2023-05-21T04:25:57;12.27;;;7.40;;
2396;SDS011;1209;48.410;9.054;2023-05-21T04:28:22;10.47;;;8.37;;
2396;SDS011;1209;48.410;9.054;2023-05-21T04:30:48;13.43;;;7.70;;
2396;SDS011;1209;48.410;9.054;2023-05-21T04:33:13;10.70;;;7.83;;
2396;SDS011;1209;48.410;9.054;2023-05-21T04:35:42;8.53;;;7.17;;
2396;SDS011;1209;48.410;9.054;2023-05-21T04:38:08;11.37;;;7.73;;
2396;SDS011;1209;48.410;9.054;2023-05-21T04:40:33;12.87;;;9.10;;
2396;SDS011;1209;48.410;9.054;2023-05-21T04:42:59;10.50;;;7.93;;
2396;SDS011;1209;48.410;9.054;2023-05-21T04:45:25;10.37;;;7.93;;
2396;SDS011;1209;48.410;9.054;2023-05-21T04:47:51;11.93;;;7.80;;
2396;SDS011;1209;48.410;9.054;2023-05-21T04:50:16;10.10;;;7.47;;
2396;SDS011;1209;48.410;9.054;2023-05-21T04:52:42;11.90;;;8.67;;
2396;SDS011;1209;48.410;9.054;2023-05-21T04:55:09;10.13;;;7.40;;
2396;SDS011;1209;48.410;9.054;2023-05-21T04:57:35;10.50;;;7.67;;
2396;SDS011;1209;48.410;9.054;2023-05-21T05:00:00;13.03;;;8.07;;
2396;SDS011;1209;48.410;9.054;2023-05-21T05:02:26;9.73;;;7.40;;
2396;SDS011;1209;48.410;9.054;2023-05-21T05:04:51;12.50;;;8.20;;
2396;SDS011;1209;48.410;9.054;2023-05-21T05:07:16;10.33;;;8.10;;
2396;SDS011;1209;48.410;9.054;2023-05-21T05:09:42;13.30;;;8.83;;
2396;SDS011;1209;48.410;9.054;2023-05-21T05:12:07;11.33;;;8.80;;
2396;SDS011;1209;48.410;9.054;2023-05-21T05:14:33;11.20;;;8.00;;
2396;SDS011;1209;48.410;9.054;2023-05-21T05:16:58;12.60;;;8.60;;
2396;SDS011;1209;48.410;9.054;2023-05-21T05:19:24;10.67;;;7.93;;
2396;SDS011;1209;48.410;9.054;2023-05-21T05:21:49;12.13;;;8.17;;
2396;SDS011;1209;48.410;9.054;2023-05-21T05:24:14;10.93;;;8.20;;
2396;SDS011;1209;48.410;9.054;2023-05-21T05:26:40;10.20;;;8.03;;
2396;SDS011;1209;48.410;9.054;2023-05-21T05:29:05;12.37;;;8.43;;
2396;SDS011;1209;48.410;9.054;2023-05-21T05:31:30;11.17;;;8.40;;
2396;SDS011;1209;48.410;9.054;2023-05-21T05:33:56;13.73;;;8.50;;
2396;SDS011;1209;48.410;9.054;2023-05-21T05:36:22;10.77;;;8.27;;
2396;SDS011;1209;48.410;9.054;2023-05-21T05:38:48;10.80;;;8.17;;
2396;SDS011;1209;48.410;9.054;2023-05-21T05:41:13;12.80;;;8.87;;
2396;SDS011;1209;48.410;9.054;2023-05-21T05:43:38;13.07;;;8.57;;
2396;SDS011;1209;48.410;9.054;2023-05-21T05:46:04;11.93;;;9.00;;
2396;SDS011;1209;48.410;9.054;2023-05-21T05:48:29;12.37;;;8.57;;
2396;SDS011;1209;48.410;9.054;2023-05-21T05:50:55;12.57;;;8.93;;
2396;SDS011;1209;48.410;9.054;2023-05-21T05:53:21;12.37;;;9.13;;
2396;SDS011;1209;48.410;9.054;2023-05-21T05:55:46;12.83;;;8.97;;
2396;SDS011;1209;48.410;9.054;2023-05-21T05:58:12;14.93;;;9.20;;
2396;SDS011;1209;48.410;9.054;2023-05-21T06:00:37;12.33;;;8.87;;
2396;SDS011;1209;48.410;9.054;2023-05-21T06:03:02;12.50;;;9.20;;
2396;SDS011;1209;48.410;9.054;2023-05-21T06:05:28;11.00;;;8.57;;
2396;SDS011;1209;48.410;9.054;2023-05-21T06:07:53;12.07;;;8.47;;
2396;SDS011;1209;48.410;9.054;2023-05-21T06:10:18;13.40;;;9.83;;
2396;SDS011;1209;48.410;9.054;2023-05-21T06:12:44;13.10;;;8.93;;
2396;SDS011;1209;48.410;9.054;2023-05-21T06:15:10;15.80;;;9.50;;
2396;SDS011;1209;48.410;9.054;2023-05-21T06:17:35;16.30;;;10.23;;
2396;SDS011;1209;48.410;9.054;2023-05-21T06:20:00;16.57;;;9.70;;
2396;SDS011;1209;48.410;9.054;2023-05-21T06:22:26;12.77;;;9.27;;
2396;SDS011;1209;48.410;9.054;2023-05-21T06:24:51;14.00;;;9.20;;
2396;SDS011;1209;48.410;9.054;2023-05-21T06:27:17;13.00;;;8.73;;
2396;SDS011;1209;48.410;9.054;2023-05-21T06:29:42;15.67;;;9.27;;
2396;SDS011;1209;48.410;9.054;2023-05-21T06:32:07;14.97;;;9.90;;
2396;SDS011;1209;48.410;9.054;2023-05-21T06:34:33;16.07;;;10.23;;
2396;SDS011;1209;48.410;9.054;2023-05-21T06:36:58;14.90;;;10.50;;
2396;SDS011;1209;48.410;9.054;2023-05-21T06:39:23;13.50;;;9.53;;
2396;SDS011;1209;48.410;9.054;2023-05-21T06:41:51;13.37;;;9.80;;
2396;SDS011;1209;48.410;9.054;2023-05-21T06:44:16;12.60;;;10.13;;
2396;SDS011;1209;48.410;9.054;2023-05-21T06:46:42;16.43;;;11.30;;
2396;SDS011;1209;48.410;9.054;2023-05-21T06:49:08;12.87;;;9.37;;
2396;SDS011;1209;48.410;9.054;2023-05-21T06:51:33;15.90;;;11.00;;
2396;SDS011;1209;48.410;9.054;2023-05-21T06:53:58;19.47;;;12.10;;
2396;SDS011;1209;48.410;9.054;2023-05-21T06:56:24;19.87;;;11.70;;
2396;SDS011;1209;48.410;9.054;2023-05-21T06:58:50;16.07;;;12.10;;
2396;SDS011;1209;48.410;9.054;2023-05-21T07:01:15;17.77;;;11.77;;
2396;SDS011;1209;48.410;9.054;2023-05-21T07:03:41;17.07;;;11.43;;
2396;SDS011;1209;48.410;9.054;2023-05-21T07:06:06;16.23;;;10.33;;
2396;SDS011;1209;48.410;9.054;2023-05-21T07:08:31;14.70;;;11.10;;
2396;SDS011;1209;48.410;9.054;2023-05-21T07:10:57;17.07;;;11.10;;
2396;SDS011;1209;48.410;9.054;2023-05-21T07:13:22;15.07;;;10.77;;
2396;SDS011;1209;48.410;9.054;2023-05-21T07:15:47;18.77;;;11.60;;
2396;SDS011;1209;48.410;9.054;2023-05-21T07:18:13;17.13;;;11.57;;
2396;SDS011;1209;48.410;9.054;2023-05-21T07:20:38;15.73;;;11.47;;
2396;SDS011;1209;48.410;9.054;2023-05-21T07:23:03;16.30;;;11.90;;
2396;SDS011;1209;48.410;9.054;2023-05-21T07:25:29;18.10;;;11.77;;
2396;SDS011;1209;48.410;9.054;2023-05-21T07:27:54;16.03;;;11.90;;
2396;SDS011;1209;48.410;9.054;2023-05-21T07:30:20;19.47;;;12.40;;
2396;SDS011;1209;48.410;9.054;2023-05-21T07:32:45;15.57;;;11.67;;
2396;SDS011;1209;48.410;9.054;2023-05-21T07:35:11;18.07;;;11.80;;
2396;SDS011;1209;48.410;9.054;2023-05-21T07:37:36;15.73;;;11.97;;
2396;SDS011;1209;48.410;9.054;2023-05-21T07:40:01;18.47;;;12.47;;
2396;SDS011;1209;48.410;9.054;2023-05-21T07:42:27;24.50;;;12.60;;
2396;SDS011;1209;48.410;9.054;2023-05-21T07:44:52;18.30;;;13.40;;
2396;SDS011;1209;48.410;9.054;2023-05-21T07:47:18;19.40;;;13.53;;
2396;SDS011;1209;48.410;9.054;2023-05-21T07:49:43;17.57;;;12.60;;
2396;SDS011;1209;48.410;9.054;2023-05-21T07:52:09;19.00;;;12.97;;
2396;SDS011;1209;48.410;9.054;2023-05-21T07:54:34;19.70;;;13.30;;
2396;SDS011;1209;48.410;9.054;2023-05-21T07:57:00;18.20;;;12.27;;
2396;SDS011;1209;48.410;9.054;2023-05-21T07:59:26;19.60;;;13.53;;
2396;SDS011;1209;48.410;9.054;2023-05-21T08:01:52;18.20;;;11.77;;
2396;SDS011;1209;48.410;9.054;2023-05-21T08:04:17;19.27;;;12.67;;
2396;SDS011;1209;48.410;9.054;2023-05-21T08:06:42;23.33;;;13.77;;
2396;SDS011;1209;48.410;9.054;2023-05-21T08:09:08;20.63;;;13.20;;
2396;SDS011;1209;48.410;9.054;2023-05-21T08:11:33;16.97;;;11.77;;
2396;SDS011;1209;48.410;9.054;2023-05-21T08:13:59;18.57;;;12.67;;
2396;SDS011;1209;48.410;9.054;2023-05-21T08:16:24;19.70;;;13.43;;
2396;SDS011;1209;48.410;9.054;2023-05-21T08:18:50;17.50;;;12.30;;
2396;SDS011;1209;48.410;9.054;2023-05-21T08:21:15;17.97;;;12.07;;
2396;SDS011;1209;48.410;9.054;2023-05-21T08:23:41;15.90;;;10.90;;
2396;SDS011;1209;48.410;9.054;2023-05-21T08:26:06;17.83;;;13.03;;
2396;SDS011;1209;48.410;9.054;2023-05-21T08:28:32;16.87;;;12.00;;
2396;SDS011;1209;48.410;9.054;2023-05-21T08:30:59;21.43;;;12.43;;
2396;SDS011;1209;48.410;9.054;2023-05-21T08:33:25;16.37;;;11.57;;
2396;SDS011;1209;48.410;9.054;2023-05-21T08:35:50;18.07;;;12.57;;
2396;SDS011;1209;48.410;9.054;2023-05-21T08:38:15;15.43;;;11.67;;
2396;SDS011;1209;48.410;9.054;2023-05-21T08:40:41;15.30;;;12.10;;
2396;SDS011;1209;48.410;9.054;2023-05-21T08:43:06;14.63;;;10.80;;
2396;SDS011;1209;48.410;9.054;2023-05-21T08:45:37;17.53;;;11.50;;
2396;SDS011;1209;48.410;9.054;2023-05-21T08:48:06;16.20;;;11.57;;
2396;SDS011;1209;48.410;9.054;2023-05-21T08:50:35;14.53;;;9.83;;
2396;SDS011;1209;48.410;9.054;2023-05-21T08:53:00;17.40;;;11.20;;
2396;SDS011;1209;48.410;9.054;2023-05-21T08:55:26;13.90;;;10.57;;
2396;SDS011;1209;48.410;9.054;2023-05-21T08:57:52;15.90;;;11.87;;
2396;SDS011;1209;48.410;9.054;2023-05-21T09:00:18;13.43;;;10.00;;
2396;SDS011;1209;48.410;9.054;2023-05-21T09:02:45;14.63;;;11.50;;
2396;SDS011;1209;48.410;9.054;2023-05-21T09:05:10;14.60;;;10.97;;
2396;SDS011;1209;48.410;9.054;2023-05-21T09:07:42;15.63;;;11.60;;
2396;SDS011;1209;48.410;9.054;2023-05-21T09:10:12;14.80;;;11.17;;
2396;SDS011;1209;48.410;9.054;2023-05-21T09:12:38;13.20;;;10.60;;
2396;SDS011;1209;48.410;9.054;2023-05-21T09:15:04;14.43;;;10.70;;
2396;SDS011;1209;48.410;9.054;2023-05-21T09:17:30;16.53;;;11.73;;
2396;SDS011;1209;48.410;9.054;2023-05-21T09:22:51;16.83;;;12.30;;
2396;SDS011;1209;48.410;9.054;2023-05-21T09:25:25;17.03;;;11.10;;
2396;SDS011;1209;48.410;9.054;2023-05-21T09:27:57;16.37;;;11.87;;
2396;SDS011;1209;48.410;9.054;2023-05-21T09:30:23;15.33;;;11.77;;
2396;SDS011;1209;48.410;9.054;2023-05-21T09:32:52;15.40;;;11.17;;
2396;SDS011;1209;48.410;9.054;2023-05-21T09:35:20;16.83;;;11.83;;
2396;SDS011;1209;48.410;9.054;2023-05-21T09:37:46;16.73;;;13.00;;
2396;SDS011;1209;48.410;9.054;2023-05-21T09:40:13;15.87;;;11.80;;
2396;SDS011;1209;48.410;9.054;2023-05-21T09:42:40;16.47;;;11.87;;
2396;SDS011;1209;48.410;9.054;2023-05-21T09:45:08;16.40;;;12.73;;
2396;SDS011;1209;48.410;9.054;2023-05-21T09:47:41;15.37;;;11.33;;
2396;SDS011;1209;48.410;9.054;2023-05-21T09:50:10;13.70;;;11.63;;
2396;SDS011;1209;48.410;9.054;2023-05-21T09:52:36;15.70;;;11.90;;
2396;SDS011;1209;48.410;9.054;2023-05-21T09:55:03;15.10;;;11.13;;
2396;SDS011;1209;48.410;9.054;2023-05-21T09:57:38;15.90;;;11.50;;
2396;SDS011;1209;48.410;9.054;2023-05-21T10:00:08;14.93;;;11.07;;
2396;SDS011;1209;48.410;9.054;2023-05-21T10:02:45;27.10;;;12.00;;
2396;SDS011;1209;48.410;9.054;2023-05-21T10:05:20;17.57;;;13.00;;
2396;SDS011;1209;48.410;9.054;2023-05-21T10:07:50;16.60;;;11.50;;
2396;SDS011;1209;48.410;9.054;2023-05-21T10:10:20;14.53;;;11.47;;
2396;SDS011;1209;48.410;9.054;2023-05-21T10:12:50;15.33;;;12.17;;
2396;SDS011;1209;48.410;9.054;2023-05-21T10:15:22;16.73;;;12.77;;
2396;SDS011;1209;48.410;9.054;2023-05-21T10:17:48;17.00;;;13.83;;
2396;SDS011;1209;48.410;9.054;2023-05-21T10:20:15;17.00;;;12.17;;
2396;SDS011;1209;48.410;9.054;2023-05-21T10:22:41;18.73;;;12.80;;
2396;SDS011;1209;48.410;9.054;2023-05-21T10:25:08;15.67;;;12.03;;
2396;SDS011;1209;48.410;9.054;2023-05-21T10:27:34;15.70;;;11.13;;
2396;SDS011;1209;48.410;9.054;2023-05-21T10:30:01;22.83;;;12.87;;
2396;SDS011;1209;48.410;9.054;2023-05-21T10:32:28;18.10;;;12.73;;
2396;SDS011;1209;48.410;9.054;2023-05-21T10:34:54;16.37;;;10.93;;
2396;SDS011;1209;48.410;9.054;2023-05-21T10:37:24;15.37;;;12.30;;
2396;SDS011;1209;48.410;9.054;2023-05-21T10:39:51;17.33;;;11.77;;
2396;SDS011;1209;48.410;9.054;2023-05-21T10:42:20;27.10;;;13.80;;
2396;SDS011;1209;48.410;9.054;2023-05-21T10:45:07;18.97;;;13.07;;
2396;SDS011;1209;48.410;9.054;2023-05-21T10:48:01;15.70;;;11.23;;
2396;SDS011;1209;48.410;9.054;2023-05-21T10:50:34;12.97;;;10.37;;
2396;SDS011;1209;48.410;9.054;2023-05-21T10:56:14;14.20;;;10.63;;
2396;SDS011;1209;48.410;9.054;2023-05-21T10:58:58;21.97;;;15.43;;
2396;SDS011;1209;48.410;9.054;2023-05-21T11:01:28;19.90;;;11.40;;
2396;SDS011;1209;48.410;9.054;2023-05-21T11:04:00;15.90;;;12.37;;
2396;SDS011;1209;48.410;9.054;2023-05-21T11:06:26;14.30;;;11.63;;
2396;SDS011;1209;48.410;9.054;2023-05-21T11:08:52;15.90;;;11.90;;
2396;SDS011;1209;48.410;9.054;2023-05-21T11:12:00;13.47;;;10.40;;
2396;SDS011;1209;48.410;9.054;2023-05-21T11:14:27;11.93;;;10.10;;
2396;SDS011;1209;48.410;9.054;2023-05-21T11:17:03;17.37;;;10.47;;
2396;SDS011;1209;48.410;9.054;2023-05-21T11:19:39;11.60;;;10.40;;
2396;SDS011;1209;48.410;9.054;2023-05-21T11:22:26;13.70;;;10.60;;
2396;SDS011;1209;48.410;9.054;2023-05-21T11:24:52;13.23;;;11.30;;
2396;SDS011;1209;48.410;9.054;2023-05-21T11:27:37;12.23;;;9.40;;
2396;SDS011;1209;48.410;9.054;2023-05-21T11:32:30;13.60;;;10.37;;
2396;SDS011;1209;48.410;9.054;2023-05-21T11:34:58;14.40;;;10.13;;
2396;SDS011;1209;48.410;9.054;2023-05-21T11:37:26;13.33;;;10.60;;
2396;SDS011;1209;48.410;9.054;2023-05-21T11:39:54;16.70;;;10.13;;
2396;SDS011;1209;48.410;9.054;2023-05-21T11:42:30;13.20;;;10.43;;
2396;SDS011;1209;48.410;9.054;2023-05-21T11:44:57;14.73;;;10.30;;
2396;SDS011;1209;48.410;9.054;2023-05-21T11:47:23;13.50;;;10.90;;
2396;SDS011;1209;48.410;9.054;2023-05-21T11:49:50;14.93;;;11.03;;
2396;SDS011;1209;48.410;9.054;2023-05-21T11:52:16;12.77;;;10.07;;
2396;SDS011;1209;48.410;9.054;2023-05-21T11:54:47;13.07;;;9.43;;
2396;SDS011;1209;48.410;9.054;2023-05-21T11:57:14;12.10;;;9.83;;
2396;SDS011;1209;48.410;9.054;2023-05-21T11:59:43;15.07;;;10.00;;
2396;SDS011;1209;48.410;9.054;2023-05-21T12:02:14;11.77;;;9.83;;
2396;SDS011;1209;48.410;9.054;2023-05-21T12:04:41;12.07;;;9.17;;
2396;SDS011;1209;48.410;9.054;2023-05-21T12:07:07;13.00;;;10.23;;
2396;SDS011;1209;48.410;9.054;2023-05-21T12:09:49;11.83;;;9.40;;
2396;SDS011;1209;48.410;9.054;2023-05-21T12:12:16;14.67;;;10.17;;
2396;SDS011;1209;48.410;9.054;2023-05-21T12:14:43;11.43;;;8.87;;
2396;SDS011;1209;48.410;9.054;2023-05-21T12:17:10;10.53;;;9.33;;
2396;SDS011;1209;48.410;9.054;2023-05-21T12:19:37;12.20;;;9.33;;
2396;SDS011;1209;48.410;9.054;2023-05-21T12:22:03;11.33;;;9.00;;
2396;SDS011;1209;48.410;9.054;2023-05-21T12:24:30;12.67;;;9.23;;
2396;SDS011;1209;48.410;9.054;2023-05-21T12:26:59;11.93;;;9.40;;
2396;SDS011;1209;48.410;9.054;2023-05-21T12:29:29;14.83;;;9.57;;
2396;SDS011;1209;48.410;9.054;2023-05-21T12:31:59;9.80;;;8.53;;
2396;SDS011;1209;48.410;9.054;2023-05-21T12:34:41;10.50;;;9.00;;
2396;SDS011;1209;48.410;9.054;2023-05-21T12:39:49;9.63;;;8.57;;
2396;SDS011;1209;48.410;9.054;2023-05-21T12:42:16;11.17;;;9.10;;
2396;SDS011;1209;48.410;9.054;2023-05-21T12:44:50;12.90;;;9.33;;
2396;SDS011;1209;48.410;9.054;2023-05-21T12:47:16;11.57;;;8.40;;
2396;SDS011;1209;48.410;9.054;2023-05-21T12:49:42;10.60;;;8.63;;
2396;SDS011;1209;48.410;9.054;2023-05-21T12:52:12;9.70;;;8.00;;
2396;SDS011;1209;48.410;9.054;2023-05-21T12:54:39;10.90;;;9.13;;
2396;SDS011;1209;48.410;9.054;2023-05-21T12:57:14;9.30;;;8.10;;
2396;SDS011;1209;48.410;9.054;2023-05-21T12:59:47;9.37;;;8.40;;
2396;SDS011;1209;48.410;9.054;2023-05-21T13:02:23;8.33;;;7.50;;
2396;SDS011;1209;48.410;9.054;2023-05-21T13:04:54;9.40;;;7.83;;
2396;SDS011;1209;48.410;9.054;2023-05-21T13:07:21;9.13;;;8.20;;
2396;SDS011;1209;48.410;9.054;2023-05-21T13:09:47;10.67;;;7.63;;
2396;SDS011;1209;48.410;9.054;2023-05-21T13:12:13;9.67;;;8.50;;
2396;SDS011;1209;48.410;9.054;2023-05-21T13:14:39;9.70;;;7.60;;
2396;SDS011;1209;48.410;9.054;2023-05-21T13:17:04;8.23;;;7.30;;
2396;SDS011;1209;48.410;9.054;2023-05-21T13:19:30;9.00;;;7.80;;
2396;SDS011;1209;48.410;9.054;2023-05-21T13:21:55;8.57;;;6.67;;
2396;SDS011;1209;48.410;9.054;2023-05-21T13:24:21;8.17;;;6.60;;
2396;SDS011;1209;48.410;9.054;2023-05-21T13:26:46;9.27;;;7.83;;
2396;SDS011;1209;48.410;9.054;2023-05-21T13:29:11;8.30;;;7.23;;
2396;SDS011;1209;48.410;9.054;2023-05-21T13:31:39;9.83;;;6.97;;
2396;SDS011;1209;48.410;9.054;2023-05-21T13:34:05;9.37;;;7.40;;
2396;SDS011;1209;48.410;9.054;2023-05-21T13:36:31;8.90;;;7.07;;
2396;SDS011;1209;48.410;9.054;2023-05-21T13:38:57;9.40;;;7.07;;
2396;SDS011;1209;48.410;9.054;2023-05-21T13:41:22;10.07;;;7.60;;
2396;SDS011;1209;48.410;9.054;2023-05-21T13:43:47;10.47;;;6.80;;
2396;SDS011;1209;48.410;9.054;2023-05-21T13:46:13;9.93;;;6.83;;
2396;SDS011;1209;48.410;9.054;2023-05-21T13:48:38;8.93;;;6.93;;
2396;SDS011;1209;48.410;9.054;2023-05-21T13:51:04;9.07;;;6.83;;
2396;SDS011;1209;48.410;9.054;2023-05-21T13:53:29;9.23;;;7.70;;
2396;SDS011;1209;48.410;9.054;2023-05-21T13:55:54;7.60;;;6.77;;
2396;SDS011;1209;48.410;9.054;2023-05-21T13:58:20;10.17;;;7.67;;
2396;SDS011;1209;48.410;9.054;2023-05-21T14:00:45;7.90;;;7.10;;
2396;SDS011;1209;48.410;9.054;2023-05-21T14:03:10;12.50;;;7.40;;
2396;SDS011;1209;48.410;9.054;2023-05-21T14:05:36;6.90;;;6.20;;
2396;SDS011;1209;48.410;9.054;2023-05-21T14:08:02;12.40;;;7.70;;
2396;SDS011;1209;48.410;9.054;2023-05-21T14:10:28;10.97;;;7.57;;
2396;SDS011;1209;48.410;9.054;2023-05-21T14:12:53;8.00;;;6.80;;
2396;SDS011;1209;48.410;9.054;2023-05-21T14:15:18;8.10;;;6.90;;
2396;SDS011;1209;48.410;9.054;2023-05-21T14:17:45;8.77;;;6.57;;
2396;SDS011;1209;48.410;9.054;2023-05-21T14:20:10;8.90;;;6.57;;
2396;SDS011;1209;48.410;9.054;2023-05-21T14:22:36;8.67;;;6.53;;
2396;SDS011;1209;48.410;9.054;2023-05-21T14:25:02;7.67;;;6.70;;
2396;SDS011;1209;48.410;9.054;2023-05-21T14:27:27;8.80;;;6.47;;
2396;SDS011;1209;48.410;9.054;2023-05-21T14:29:53;7.37;;;6.03;;
2396;SDS011;1209;48.410;9.054;2023-05-21T14:32:18;7.50;;;6.73;;
2396;SDS011;1209;48.410;9.054;2023-05-21T14:34:43;7.70;;;6.87;;
2396;SDS011;1209;48.410;9.054;2023-05-21T14:37:09;7.97;;;6.77;;
2396;SDS011;1209;48.410;9.054;2023-05-21T14:39:34;8.40;;;6.60;;
2396;SDS011;1209;48.410;9.054;2023-05-21T14:42:01;7.63;;;6.73;;
2396;SDS011;1209;48.410;9.054;2023-05-21T14:44:27;7.97;;;6.77;;
2396;SDS011;1209;48.410;9.054;2023-05-21T14:46:53;8.70;;;6.70;;
2396;SDS011;1209;48.410;9.054;2023-05-21T14:49:18;10.67;;;7.20;;
2396;SDS011;1209;48.410;9.054;2023-05-21T14:51:43;8.57;;;7.07;;
2396;SDS011;1209;48.410;9.054;2023-05-21T14:54:09;9.20;;;7.00;;
2396;SDS011;1209;48.410;9.054;2023-05-21T14:56:34;8.53;;;6.17;;
2396;SDS011;1209;48.410;9.054;2023-05-21T14:58:59;7.67;;;6.50;;
2396;SDS011;1209;48.410;9.054;2023-05-21T15:01:25;9.70;;;6.13;;
2396;SDS011;1209;48.410;9.054;2023-05-21T15:03:50;10.40;;;6.50;;
2396;SDS011;1209;48.410;9.054;2023-05-21T15:06:15;8.30;;;6.00;;
2396;SDS011;1209;48.410;9.054;2023-05-21T15:08:41;8.00;;;6.53;;
2396;SDS011;1209;48.410;9.054;2023-05-21T15:11:15;7.31;;;6.56;;